Terminal Aerodrome Forecast
Issued by NWS

Home | Current Version | Previous Version | Text Only | Print | Product List | Glossary On
Versions: 1 2 3 4 5 6 7 8 9 10 11 12 13 14 15 16
000
FTUS43 KMQT 300500
TAFSAW
TAF
KSAW 300532Z 3006/0106 01011KT P6SM OVC010
     FM301200 02010KT P6SM OVC020
     FM302100 03007KT P6SM SCT025
     FM010100 VRB03KT P6SM SKC
      AMD LTD TO CLD VIS AND WIND TIL 301000=

USA.gov is the U.S. government's official web portal to all federal, state and local government web resources and services.